Patrick Muller

Olheiro - Sochaux
10 Set 2028
Domingo
Processo

Personalidade

Adaptabilidade (3) Ambição (10) Controvérsia (10) Lealdade (1) Pressão (17) Profissionalismo (5) Espírito Esportivo (1) Temperamento (10)

Perfil

Estilo de Treinamento Democrático
Licença Nacional B
Determinação 7
Gestão de Pessoas 12
Motivação 8
Disciplina 10
Satisfação no Trabalho
100%
Fadiga
0%
Função Olheiro
Salário 12.5K p/s
Contrato 14.03.2030

Desempenho

Comportamento Bom
Eficácia do Treinamento
36%
Desenvolvimento do Jogador
55%
Prevenção de Lesões
60%
Implementação Tática
30%

Eventos Recentes

Participou de uma reunião de recrutamento agora
Recomendou um alvo de transferência agora
Participou de uma reunião de recrutamento 7d atrás
Recomendou um alvo de transferência 7d atrás
Recomendou um alvo de transferência 7d atrás
Recomendou um alvo de transferência 7d atrás
Recomendou um alvo de transferência 14d atrás
Recomendou um alvo de transferência 14d atrás

Monitorando agora

105
Jogador Clube Status Habilidade Confiança Observado Última observação Último voto
Justin Lacombe Valenciennes Negociando 107 / 111 69% 1 14.08.2028 -
Erin Airhiavbere Valenciennes Negociando 101 / 101 69% 1 24.07.2028 -
Josh Nichols Oldham Athletic Ativo 128 / 122 40% 2 31.05.2028 -
Kamaldeen Atiemo Wa All Stars Ativo 101 / 116 40% 1 31.05.2028 -
Martim Cunha Porto Ativo 103 / 113 40% 2 28.05.2028 -
Andrija Bulatović Chamois Niortais Ativo 132 / 136 40% 3 28.05.2028 -
Olivier Leroux Mouscron Ativo 104 / 114 40% 2 25.05.2028 -
Riquelme Thompson-Jones Accrington Stanley Ativo 116 / 120 40% 4 25.05.2028 -
Giovanni Leoni Lincoln City Ativo 134 / 150 40% 5 24.05.2028 -
Issa Tounkara Etoiles du Mande Ativo 79 / 96 40% 1 24.05.2028 -
Arsene Mekila Gazelle Garoua Ativo 86 / 91 40% 1 24.05.2028 -
Dmytro Strilchuk Podillia Ativo 96 / 84 40% 2 22.05.2028 -
Tyler Fletcher Rotherham United Ativo 110 / 114 40% 1 22.05.2028 -
David Blanc Le Havre AC Ativo 117 / 120 40% 1 21.05.2028 -
Simone Suppa Virtus Verona Ativo 79 / 87 40% 1 21.05.2028 -
Jan Bürger Northampton Town Ativo 114 / 131 40% 1 20.05.2028 -
Andrea Cogoni Cosenza Ativo 115 / 110 40% 1 17.05.2028 -
Joel Ezra Enyimba Ativo 83 / 94 40% 1 15.05.2028 -
Gael Moreno Morelia Ativo 78 / 65 40% 1 13.05.2028 -
Abubakar Adams Aduana Stars Ativo 77 / 90 40% 2 09.05.2028 -
Kiani Inge Groningen Ativo 117 / 115 40% 2 07.05.2028 -
Kelian Le Pironnec Mirandés Ativo 100 / 106 40% 2 06.05.2028 -
Amine Boukamir Charleroi Ativo 104 / 114 40% 1 02.05.2028 -
Nko Ghangle Rattensi Victoria United Ativo 83 / 82 40% 1 30.04.2028 -
Maël Monyebe Gazelle Garoua Ativo 88 / 94 40% 2 27.04.2028 -
Honest Ahanor Atalanta Ativo 134 / 134 40% 1 27.04.2028 -
Bernardo Lima Porto Ativo 105 / 120 40% 2 25.04.2028 -
Thato Sibiya Orlando Pirates Ativo 107 / 116 40% 1 24.04.2028 -
Augusto Bando Ascoli Ativo 110 / 123 40% 2 23.04.2028 -
Christos Mouzakitis Hull City Ativo 129 / 145 40% 1 22.04.2028 -
Trey Nyoni Rotherham United Ativo 138 / 150 40% 3 21.04.2028 -
Daniel Banjaqui Benfica Ativo 129 / 134 40% 2 21.04.2028 -
Maxim Radchenko Rostov Ativo 98 / 107 40% 1 21.04.2028 -
Jorthy Mokio ADO Den Haag Ativo 131 / 135 40% 1 20.04.2028 -
Tobiáš Pališčák Zlin Ativo 98 / 107 40% 1 20.04.2028 -
Bence Szakos Aris Ativo 87 / 93 40% 1 19.04.2028 -
Kwesi Sorotu Badori Berekum Chelsea Ativo 104 / 114 40% 2 16.04.2028 -
Federico Matarán Giana Erminio Ativo 108 / 116 40% 1 12.04.2028 -
Gustavo Albarracín Alavés Ativo 108 / 117 40% 1 08.04.2028 -
Andrey Ivlev Nizhniy Novgorod Ativo 119 / 124 40% 2 07.04.2028 -
Makar Vysochenko Spartak Moscow Ativo 96 / 102 40% 1 07.04.2028 -
Olivier Mambwa Young Boys Ativo 116 / 112 40% 1 04.04.2028 -
Thijs Kraaijeveld USM Alger Ativo 126 / 134 40% 2 29.03.2028 -
Josh Acheampong Everton Ativo 142 / 152 40% 1 29.03.2028 -
Nicolas Sport Recife Ativo 93 / 116 40% 1 22.03.2028 -
Konta Ismaily Ativo 103 / 100 40% 1 20.03.2028 -
Joseph Namatane FC Metz Ativo 99 / 97 40% 1 20.03.2028 -
Ayden Heaven Portsmouth Ativo 139 / 157 40% 1 07.03.2028 -
Quentin Beunardeau Red Star Ativo 123 / 113 62% 1 19.07.2027 Aprovar
Ahmad Ngouyamsa US Creteil Ativo 117 / 110 62% 1 01.06.2027 Aprovar
Mohamed Belloumi Hull City Ativo 137 / 130 40% 1 30.05.2027 -
Welington Southampton Ativo 130 / 127 40% 1 29.05.2027 -
Bosun Lawal Stoke City Ativo 118 / 130 40% 1 27.05.2027 -
Cian Ashford Cardiff City Ativo 122 / 122 40% 1 24.05.2027 -
Tyrese Campbell Sheffield United Ativo 121 / 131 40% 1 24.05.2027 -
Ilias Sebaoui Sint-Truiden Ativo 124 / 123 40% 3 20.05.2027 -
Kristoffer Lund Birmingham Ativo 122 / 129 40% 1 14.05.2027 -
Jeppe Erenbjerg Racing Genk Ativo 118 / 120 40% 1 13.05.2027 -
Scott Twine Bristol City Ativo 123 / 127 40% 1 11.05.2027 -
Rocco Vata Watford Ativo 115 / 117 40% 1 11.05.2027 -
Alfie Doughty Millwall Ativo 131 / 130 40% 1 08.05.2027 -
Finn Azaz Southampton Ativo 123 / 128 40% 1 05.05.2027 -
Jack Currie Oxford United Ativo 116 / 115 40% 2 04.05.2027 -
Mohamed-Ali Cho Hull City Ativo 141 / 143 40% 1 04.05.2027 -
Jason Knight Bristol City Ativo 140 / 132 40% 1 03.05.2027 -
Léandre Kuavita Waasland-Beveren Ativo 108 / 119 40% 1 30.04.2027 -
Martin Baturina Como Ativo 135 / 132 40% 1 30.04.2027 -
Thibaud Verlinden OH Leuven Ativo 119 / 116 40% 2 29.04.2027 -
Jack Rudoni Coventry City Ativo 132 / 129 40% 1 28.04.2027 -
Sylvester Jasper Standard Liege Ativo 122 / 114 40% 1 28.04.2027 -
Abdelkahar Kadri KAA Gent Ativo 123 / 123 40% 3 26.04.2027 -
Isaiah Jones Luton Town Ativo 123 / 127 40% 5 14.04.2027 -
Brooke Norton-Cuffy Hull City Ativo 130 / 131 40% 1 14.04.2027 -
Juan Bezerra Zamalek Ativo 125 / 125 40% 1 13.04.2027 -
Xavier Amaechi Plymouth Argyle Ativo 101 / 104 40% 1 13.04.2027 -
Milan van Ewijk Coventry City Ativo 138 / 129 40% 1 10.04.2027 -
Antoine Colassin Charleroi Ativo 113 / 114 40% 1 08.04.2027 -
Luca Koleosho Paris FC Ativo 131 / 135 40% 1 05.04.2027 -
Hicham Mahou Angers SCO Ativo 110 / 110 40% 1 05.04.2027 -
Ayman Kari Westerlo Ativo 125 / 116 40% 2 29.03.2027 -
Taiga Hata Sint-Truiden Ativo 132 / 118 40% 2 28.03.2027 -
Florentino Luís Ipswich Town Ativo 150 / 141 40% 1 28.03.2027 -
Joe Gelhardt Hull City Ativo 135 / 136 40% 1 24.03.2027 -
Tommy St. Jago KV Mechelen Ativo 112 / 120 40% 1 24.03.2027 -
Chris Lokesa Waasland-Beveren Ativo 122 / 123 40% 1 22.03.2027 -
Oswin Appollis Orlando Pirates Ativo 132 / 111 40% 1 20.03.2027 -
Mardochée Nzita Charleroi Ativo 107 / 122 40% 2 18.03.2027 -
Ar'jany Martha Rotherham United Ativo 115 / 109 40% 1 18.03.2027 -
Théodore Lefèvre Tours Ativo 138 / 123 40% 1 17.03.2027 -
Daniel Kyerewaa Reading Ativo 121 / 107 40% 1 16.03.2027 -
Thomas Claes Zulte Waregem Ativo 108 / 125 40% 2 14.03.2027 -
Bongani Zungu Ajax Cape Town Ativo 142 / 137 40% 1 14.03.2027 -
Malick Mbaye Zulte Waregem Ativo 116 / 118 40% 1 13.03.2027 -
Samuel Edozie Southampton Ativo 130 / 134 40% 1 12.03.2027 -
Timothy Witsel FC Metz Ativo 126 / 129 40% 1 07.03.2027 -
Nacim Dendani Monaco Ativo 90 / 95 62% 1 01.01.2027 Aprovar
Max Bird Birmingham Ativo 141 / 131 40% 1 14.12.2026 -
Thibaut Vargas Stade Lavallois Ativo 107 / 107 40% 1 11.12.2026 -
Wilguens Paugain Zulte Waregem Ativo 108 / 110 40% 1 11.12.2026 -
Manu Morlanes Mallorca Ativo 128 / 130 40% 1 10.12.2026 -
José Marsà KV Mechelen Ativo 128 / 126 40% 1 10.12.2026 -
Botond Balogh Westerlo Ativo 125 / 126 40% 1 08.12.2026 -
Teden Mengi Luton Town Ativo 114 / 131 40% 1 21.11.2026 -
Enrique Lofolomo Zulte Waregem Ativo 111 / 114 40% 1 11.11.2026 -
Ousmane Diomande Nottingham Forest Ativo 148 / 156 40% 1 07.10.2026 -